createdAt,value
2022-09-09T00:00:18.685Z,18.49
2022-09-09T00:02:55.841Z,18.40
2022-09-09T00:05:33.392Z,18.28
2022-09-09T00:08:06.572Z,18.15
2022-09-09T00:10:40.574Z,18.02
2022-09-09T00:13:18.263Z,17.89
2022-09-09T00:15:57.820Z,17.82
2022-09-09T00:18:31.485Z,17.77
2022-09-09T00:21:08.522Z,17.63
2022-09-09T00:23:41.570Z,17.63
2022-09-09T00:26:17.930Z,17.65
2022-09-09T00:28:53.589Z,17.65
2022-09-09T00:31:27.437Z,17.65
2022-09-09T00:33:57.132Z,17.65
2022-09-09T00:36:30.102Z,17.67
2022-09-09T00:39:02.567Z,17.46
2022-09-09T00:41:46.285Z,17.37
2022-09-09T00:44:27.346Z,17.35
2022-09-09T00:47:07.117Z,17.35
2022-09-09T00:49:49.597Z,17.28
2022-09-09T00:52:30.141Z,17.22
2022-09-09T00:55:05.707Z,17.18
2022-09-09T00:57:35.648Z,17.12
2022-09-09T01:00:24.252Z,17.09
2022-09-09T01:03:04.787Z,17.16
2022-09-09T01:05:42.077Z,17.33
2022-09-09T01:08:25.815Z,17.42
2022-09-09T01:10:54.935Z,17.43
2022-09-09T01:13:31.302Z,17.35
2022-09-09T01:16:03.555Z,17.23
2022-09-09T01:18:41.721Z,17.14
2022-09-09T01:21:19.460Z,17.05
2022-09-09T01:24:10.056Z,17.06
2022-09-09T01:27:05.820Z,17.18
2022-09-09T01:29:37.539Z,17.13
2022-09-09T01:32:40.370Z,17.06
2022-09-09T01:35:13.082Z,16.99
2022-09-09T01:37:41.850Z,16.93
2022-09-09T01:40:10.496Z,16.88
2022-09-09T01:42:41.295Z,17.05
2022-09-09T01:45:11.072Z,17.02
2022-09-09T01:47:40.043Z,17.10
2022-09-09T01:50:28.833Z,17.02
2022-09-09T01:53:00.491Z,16.95
2022-09-09T01:55:35.575Z,16.98
2022-09-09T01:58:30.253Z,17.04
2022-09-09T02:01:08.839Z,17.08
2022-09-09T02:03:37.657Z,16.97
2022-09-09T02:06:27.337Z,16.97
2022-09-09T02:09:04.593Z,16.99
2022-09-09T02:11:34.769Z,17.07
2022-09-09T02:14:15.104Z,17.15
2022-09-09T02:16:52.240Z,17.18
2022-09-09T02:19:27.972Z,17.30
2022-09-09T02:22:18.424Z,17.52
2022-09-09T02:24:47.375Z,17.67
2022-09-09T02:27:25.384Z,17.82
2022-09-09T02:29:58.455Z,17.84
2022-09-09T02:32:40.740Z,17.93
2022-09-09T02:35:16.629Z,18.09
2022-09-09T02:37:51.199Z,18.14
2022-09-09T02:40:19.894Z,18.13
2022-09-09T02:42:52.564Z,18.14
2022-09-09T02:45:29.601Z,18.14
2022-09-09T02:48:10.094Z,18.15
2022-09-09T02:50:48.058Z,18.34
2022-09-09T02:53:22.302Z,18.28
2022-09-09T02:55:57.020Z,18.34
2022-09-09T02:58:26.442Z,18.30
2022-09-09T03:01:02.229Z,18.24
2022-09-09T03:03:34.561Z,18.33
2022-09-09T03:06:07.378Z,18.11
2022-09-09T03:08:35.404Z,18.05
2022-09-09T03:11:03.297Z,17.99
2022-09-09T03:13:34.822Z,17.97
2022-09-09T03:16:06.189Z,18.04
2022-09-09T03:18:39.931Z,17.94
2022-09-09T03:21:09.704Z,17.91
2022-09-09T03:23:40.892Z,17.84
2022-09-09T03:26:09.676Z,17.93
2022-09-09T03:28:46.456Z,17.96
2022-09-09T03:31:20.579Z,17.86
2022-09-09T03:33:48.957Z,17.87
2022-09-09T03:36:19.529Z,18.02
2022-09-09T03:38:47.804Z,18.14
2022-09-09T03:41:15.849Z,18.15
2022-09-09T03:43:45.781Z,18.04
2022-09-09T03:46:13.676Z,17.99
2022-09-09T03:48:43.051Z,17.84
2022-09-09T03:51:11.651Z,17.64
2022-09-09T03:53:40.127Z,17.42
2022-09-09T03:56:09.497Z,17.16
2022-09-09T03:58:40.367Z,17.04
2022-09-09T04:01:12.007Z,17.06
2022-09-09T04:03:40.681Z,16.90
2022-09-09T04:06:14.523Z,16.86
2022-09-09T04:08:49.456Z,16.83
2022-09-09T04:11:18.973Z,16.84
2022-09-09T04:13:50.187Z,16.89
2022-09-09T04:16:19.902Z,16.96
2022-09-09T04:18:48.574Z,16.97
2022-09-09T04:21:19.250Z,16.96
2022-09-09T04:23:47.693Z,17.00
2022-09-09T04:26:16.011Z,17.10
2022-09-09T04:28:46.588Z,17.13
2022-09-09T04:31:21.335Z,17.15
2022-09-09T04:33:51.639Z,17.29
2022-09-09T04:36:22.156Z,17.38
2022-09-09T04:38:52.475Z,17.42
2022-09-09T04:41:22.025Z,17.35
2022-09-09T04:43:53.470Z,17.22
2022-09-09T04:46:24.650Z,17.08
2022-09-09T04:48:55.755Z,17.05
2022-09-09T04:51:32.213Z,16.87
2022-09-09T04:54:00.760Z,16.79
2022-09-09T04:56:29.191Z,16.77
2022-09-09T04:58:59.501Z,16.70
2022-09-09T05:01:48.901Z,16.60
2022-09-09T05:04:17.751Z,16.57
2022-09-09T05:06:47.532Z,16.47
2022-09-09T05:09:16.120Z,16.55
2022-09-09T05:11:45.772Z,16.65
2022-09-09T05:14:23.866Z,16.74
2022-09-09T05:16:55.173Z,16.76
2022-09-09T05:19:24.474Z,16.73
2022-09-09T05:21:55.483Z,16.90
2022-09-09T05:24:29.482Z,16.96
2022-09-09T05:27:02.562Z,17.06
2022-09-09T05:29:30.695Z,17.06
2022-09-09T05:31:58.795Z,17.16
2022-09-09T05:34:26.880Z,17.32
2022-09-09T05:36:59.520Z,17.26
2022-09-09T05:39:39.060Z,17.39
2022-09-09T05:42:07.612Z,17.32
2022-09-09T05:44:35.658Z,17.20
2022-09-09T05:47:04.189Z,17.01
2022-09-09T05:49:32.845Z,17.00
2022-09-09T05:52:07.956Z,16.85
2022-09-09T05:54:36.411Z,16.68
2022-09-09T05:57:04.788Z,16.75
2022-09-09T05:59:33.398Z,16.77
2022-09-09T06:02:02.299Z,16.72
2022-09-09T06:04:35.961Z,17.00
2022-09-09T06:07:07.217Z,17.40
2022-09-09T06:09:35.320Z,17.77
2022-09-09T06:12:04.287Z,18.03
2022-09-09T06:14:36.134Z,18.47
2022-09-09T06:17:04.074Z,18.94
2022-09-09T06:19:32.865Z,19.31
2022-09-09T06:22:03.338Z,19.42
2022-09-09T06:24:36.234Z,19.69
2022-09-09T06:27:06.571Z,19.80
2022-09-09T06:29:39.507Z,19.78
2022-09-09T06:32:09.756Z,19.96
2022-09-09T06:34:37.955Z,20.17
2022-09-09T06:37:07.855Z,20.48
2022-09-09T06:39:42.783Z,20.63
2022-09-09T06:42:10.823Z,20.55
2022-09-09T06:44:53.506Z,20.52
2022-09-09T06:47:45.604Z,20.54
2022-09-09T06:50:13.375Z,20.22
2022-09-09T06:52:41.306Z,20.29
2022-09-09T06:55:14.042Z,20.59
2022-09-09T06:57:42.946Z,20.61
2022-09-09T07:00:16.534Z,20.55
2022-09-09T07:02:45.534Z,20.46
2022-09-09T07:05:14.395Z,20.06
2022-09-09T07:07:44.362Z,19.98
2022-09-09T07:10:15.467Z,19.82
2022-09-09T07:12:44.137Z,19.86
2022-09-09T07:15:14.770Z,19.72
2022-09-09T07:17:46.004Z,19.74
2022-09-09T07:20:15.804Z,19.73
2022-09-09T07:22:43.893Z,19.58
2022-09-09T07:25:12.745Z,19.63
2022-09-09T07:27:42.167Z,19.86
2022-09-09T07:30:14.765Z,20.37
2022-09-09T07:32:47.371Z,20.41
2022-09-09T07:35:17.473Z,20.26
2022-09-09T07:37:51.022Z,20.12
2022-09-09T07:40:23.338Z,20.29
2022-09-09T07:42:54.865Z,20.10
2022-09-09T07:45:23.331Z,20.23
2022-09-09T07:47:52.026Z,20.36
2022-09-09T07:50:20.849Z,20.70
2022-09-09T07:52:49.703Z,20.77
2022-09-09T07:55:20.775Z,20.95
2022-09-09T07:57:49.071Z,21.02
2022-09-09T08:00:21.179Z,21.14
2022-09-09T08:02:55.262Z,21.61
2022-09-09T08:05:24.544Z,21.92
2022-09-09T08:07:52.736Z,22.11
2022-09-09T08:10:20.562Z,22.37
2022-09-09T08:13:07.759Z,22.27
2022-09-09T08:15:40.713Z,22.18
2022-09-09T08:18:10.333Z,22.18
2022-09-09T08:20:40.192Z,22.42
2022-09-09T08:23:08.724Z,22.27
2022-09-09T08:25:37.915Z,22.09
2022-09-09T08:28:08.876Z,22.24
2022-09-09T08:30:38.474Z,22.58
2022-09-09T08:33:11.436Z,22.36
2022-09-09T08:35:39.505Z,22.48
2022-09-09T08:38:10.984Z,22.62
2022-09-09T08:40:50.289Z,22.34
2022-09-09T08:43:23.867Z,22.01
2022-09-09T08:46:02.320Z,22.47
2022-09-09T08:48:51.076Z,22.48
2022-09-09T08:51:20.873Z,22.84
2022-09-09T08:53:54.469Z,22.96
2022-09-09T08:56:28.590Z,22.93
2022-09-09T08:59:04.887Z,23.28
2022-09-09T09:01:51.343Z,23.77
2022-09-09T09:04:40.526Z,23.83
2022-09-09T09:07:22.134Z,24.04
2022-09-09T09:10:11.817Z,24.08
2022-09-09T09:12:50.075Z,24.22
2022-09-09T09:15:23.300Z,24.27
2022-09-09T09:17:53.402Z,24.41
2022-09-09T09:20:31.104Z,24.17
2022-09-09T09:23:05.002Z,24.29
2022-09-09T09:25:37.555Z,23.46
2022-09-09T09:28:18.527Z,23.29
2022-09-09T09:30:54.683Z,23.18
2022-09-09T09:33:29.668Z,24.35
2022-09-09T09:36:01.960Z,26.33
2022-09-09T09:41:31.151Z,27.23
2022-09-09T09:44:00.427Z,27.37
2022-09-09T09:46:30.859Z,25.89
2022-09-09T09:49:11.820Z,24.82
2022-09-09T09:51:46.857Z,24.06
2022-09-09T09:54:25.094Z,22.84
2022-09-09T09:56:57.821Z,21.58
2022-09-09T09:59:39.768Z,21.47
2022-09-09T10:02:17.870Z,20.96
2022-09-09T10:04:48.647Z,20.68
2022-09-09T10:07:24.890Z,20.39
2022-09-09T10:09:57.217Z,20.06
2022-09-09T10:12:37.650Z,19.97
2022-09-09T10:15:18.203Z,19.98
2022-09-09T10:18:03.028Z,20.96
2022-09-09T10:20:41.361Z,23.37
2022-09-09T10:23:23.084Z,25.71
2022-09-09T10:26:09.592Z,27.78
2022-09-09T10:28:56.756Z,28.28
2022-09-09T10:31:32.633Z,27.67
2022-09-09T10:34:09.269Z,28.79
2022-09-09T10:36:43.020Z,27.81
2022-09-09T10:39:27.772Z,28.31
2022-09-09T10:42:04.880Z,29.79
2022-09-09T10:44:43.992Z,31.51
2022-09-09T10:47:42.022Z,31.89
2022-09-09T10:51:05.468Z,32.35
2022-09-09T10:53:39.879Z,34.29
2022-09-09T10:56:13.193Z,34.33
2022-09-09T10:58:46.831Z,35.57
2022-09-09T11:01:21.579Z,35.22
2022-09-09T11:03:55.812Z,32.61
2022-09-09T11:06:29.196Z,30.33
2022-09-09T11:09:02.534Z,28.81
2022-09-09T11:11:41.693Z,28.00
2022-09-09T11:14:17.566Z,27.44
2022-09-09T11:16:52.020Z,26.59
2022-09-09T11:19:28.741Z,26.84
2022-09-09T11:21:59.747Z,26.92
2022-09-09T11:24:33.679Z,30.28
2022-09-09T11:27:13.274Z,28.91
2022-09-09T11:30:02.511Z,27.68
2022-09-09T11:32:55.040Z,26.89
2022-09-09T11:35:41.481Z,26.47
2022-09-09T11:38:22.162Z,25.96
2022-09-09T11:40:58.970Z,25.60
2022-09-09T11:43:34.541Z,25.56
2022-09-09T11:46:07.109Z,25.18
2022-09-09T11:48:38.709Z,24.87
2022-09-09T11:51:14.562Z,27.08
2022-09-09T11:53:52.936Z,30.51
2022-09-09T11:56:29.637Z,29.49
2022-09-09T11:59:02.978Z,31.48
2022-09-09T12:01:52.910Z,31.09
2022-09-09T12:04:38.539Z,28.36
2022-09-09T12:07:25.716Z,26.98
2022-09-09T12:09:57.692Z,25.76
2022-09-09T12:12:31.815Z,24.76
2022-09-09T12:15:24.510Z,26.75
2022-09-09T12:17:56.522Z,27.52
2022-09-09T12:20:35.536Z,27.55
2022-09-09T12:23:26.585Z,27.16
2022-09-09T12:26:05.560Z,26.37
2022-09-09T12:28:48.741Z,26.34
2022-09-09T12:31:24.358Z,25.74
2022-09-09T12:33:53.769Z,24.95
2022-09-09T12:36:25.045Z,23.76
2022-09-09T12:38:53.574Z,21.62
2022-09-09T12:41:24.541Z,20.55
2022-09-09T12:43:52.994Z,20.11
2022-09-09T12:46:40.078Z,20.09
2022-09-09T12:49:26.398Z,20.08
2022-09-09T12:51:55.030Z,20.29
2022-09-09T12:54:24.579Z,21.08
2022-09-09T12:56:55.177Z,21.62
2022-09-09T12:59:27.586Z,21.39
2022-09-09T13:02:01.216Z,20.67
2022-09-09T13:04:29.963Z,19.59
2022-09-09T13:07:12.659Z,18.95
2022-09-09T13:09:41.804Z,18.70
2022-09-09T13:12:16.754Z,18.41
2022-09-09T13:14:50.793Z,18.31
2022-09-09T13:17:29.407Z,18.48
2022-09-09T13:19:59.024Z,18.63
2022-09-09T13:22:34.594Z,19.09
2022-09-09T13:25:10.430Z,19.63
2022-09-09T13:27:44.812Z,20.35
2022-09-09T13:30:26.627Z,20.37
2022-09-09T13:33:23.540Z,20.17
2022-09-09T13:35:58.503Z,20.59
2022-09-09T13:38:27.818Z,21.55
2022-09-09T13:41:03.102Z,22.17
2022-09-09T13:43:37.087Z,25.14
2022-09-09T13:46:08.520Z,29.82
2022-09-09T13:48:39.416Z,33.87
2022-09-09T13:51:07.467Z,33.20
2022-09-09T13:53:35.288Z,31.75
2022-09-09T13:56:03.853Z,28.80
2022-09-09T13:58:32.443Z,26.95
2022-09-09T14:01:00.763Z,25.25
2022-09-09T14:03:28.959Z,23.88
2022-09-09T14:05:58.885Z,23.60
2022-09-09T14:08:29.796Z,23.52
2022-09-09T14:10:59.394Z,23.57
2022-09-09T14:13:27.466Z,23.66
2022-09-09T14:15:55.736Z,23.56
2022-09-09T14:18:26.334Z,23.21
2022-09-09T14:20:55.019Z,22.95
2022-09-09T14:23:25.341Z,22.77
2022-09-09T14:25:54.091Z,22.72
2022-09-09T14:28:39.451Z,22.79
2022-09-09T14:31:14.588Z,22.92
2022-09-09T14:33:49.880Z,23.01
2022-09-09T14:36:18.015Z,23.00
2022-09-09T14:38:47.688Z,22.88
2022-09-09T14:41:18.881Z,22.64
2022-09-09T14:43:47.355Z,22.85
2022-09-09T14:46:16.771Z,22.64
2022-09-09T14:48:45.124Z,22.54
2022-09-09T14:51:16.787Z,22.58
2022-09-09T14:53:45.880Z,22.63
2022-09-09T14:56:17.594Z,22.79
2022-09-09T14:58:48.945Z,22.99
2022-09-09T15:01:19.564Z,22.79
2022-09-09T15:03:52.889Z,22.99
2022-09-09T15:06:22.772Z,23.00
2022-09-09T15:08:53.589Z,23.18
2022-09-09T15:11:25.654Z,23.20
2022-09-09T15:13:55.451Z,23.14
2022-09-09T15:16:26.236Z,22.85
2022-09-09T15:18:56.222Z,23.33
2022-09-09T15:21:25.826Z,24.53
2022-09-09T15:23:54.270Z,26.11
2022-09-09T15:26:24.174Z,28.23
2022-09-09T15:28:52.456Z,28.35
2022-09-09T15:31:21.850Z,27.35
2022-09-09T15:33:50.656Z,27.47
2022-09-09T15:36:20.842Z,27.71
2022-09-09T15:38:51.656Z,28.15
2022-09-09T15:41:22.073Z,27.67
2022-09-09T15:43:52.846Z,28.00
2022-09-09T15:46:28.877Z,26.55
2022-09-09T15:48:58.084Z,25.26
2022-09-09T15:51:44.275Z,24.40
2022-09-09T15:54:15.035Z,23.85
2022-09-09T15:56:44.028Z,23.76
2022-09-09T15:59:13.635Z,23.43
2022-09-09T16:01:43.227Z,23.30
2022-09-09T16:04:12.493Z,22.71
2022-09-09T16:06:40.889Z,22.21
2022-09-09T16:09:11.126Z,22.12
2022-09-09T16:11:41.664Z,21.86
2022-09-09T16:14:09.974Z,21.91
2022-09-09T16:16:39.963Z,22.18
2022-09-09T16:19:11.021Z,22.38
2022-09-09T16:21:42.027Z,22.45
2022-09-09T16:24:12.508Z,22.37
2022-09-09T16:26:44.050Z,21.99
2022-09-09T16:29:12.176Z,21.79
2022-09-09T16:31:41.653Z,21.43
2022-09-09T16:34:10.505Z,20.99
2022-09-09T16:36:41.668Z,20.81
2022-09-09T16:39:12.066Z,20.80
2022-09-09T16:41:41.579Z,20.71
2022-09-09T16:44:13.507Z,20.63
2022-09-09T16:46:44.565Z,20.74
2022-09-09T16:49:14.389Z,20.82
2022-09-09T16:51:44.731Z,20.75
2022-09-09T16:54:14.965Z,20.65
2022-09-09T16:56:44.818Z,20.59
2022-09-09T16:59:15.973Z,20.53
2022-09-09T17:01:46.823Z,20.43
2022-09-09T17:04:23.646Z,20.45
2022-09-09T17:06:53.145Z,20.49
2022-09-09T17:09:23.383Z,20.48
2022-09-09T17:11:53.518Z,20.47
2022-09-09T17:14:24.700Z,20.32
2022-09-09T17:16:54.989Z,20.11
2022-09-09T17:19:23.094Z,20.03
2022-09-09T17:22:16.934Z,19.87
2022-09-09T17:24:41.554Z,19.79
2022-09-09T17:27:09.938Z,19.65
2022-09-09T17:29:37.787Z,19.62
2022-09-09T17:32:08.483Z,19.46
2022-09-09T17:34:37.121Z,18.79
2022-09-09T17:37:07.011Z,17.99
2022-09-09T17:39:35.005Z,17.54
2022-09-09T17:42:03.546Z,17.36
2022-09-09T17:44:33.318Z,17.30
2022-09-09T17:47:01.632Z,17.20
2022-09-09T17:49:35.155Z,17.15
2022-09-09T17:52:03.898Z,17.17
2022-09-09T17:54:34.170Z,17.13
2022-09-09T17:57:02.168Z,17.06
2022-09-09T17:59:30.157Z,17.03
2022-09-09T18:02:01.186Z,16.99
2022-09-09T18:07:56.453Z,17.08
2022-09-09T18:10:26.287Z,17.21
2022-09-09T18:12:55.389Z,17.16
2022-09-09T18:15:48.238Z,17.18
2022-09-09T18:18:14.239Z,17.19
2022-09-09T18:20:44.743Z,17.16
2022-09-09T18:23:14.084Z,17.16
2022-09-09T18:25:42.975Z,17.23
2022-09-09T18:28:11.938Z,17.34
2022-09-09T18:30:41.653Z,17.41
2022-09-09T18:33:10.232Z,17.41
2022-09-09T18:35:39.224Z,17.42
2022-09-09T18:38:08.335Z,17.25
2022-09-09T18:40:37.889Z,17.24
2022-09-09T18:43:05.990Z,17.30
2022-09-09T18:45:38.208Z,17.05
2022-09-09T18:48:06.736Z,16.78
2022-09-09T18:50:36.137Z,16.59
2022-09-09T18:53:04.276Z,16.45
2022-09-09T18:55:32.849Z,16.41
2022-09-09T18:58:03.512Z,16.38
2022-09-09T19:00:32.908Z,16.48
2022-09-09T19:03:01.203Z,16.51
2022-09-09T19:05:31.741Z,16.39
2022-09-09T19:08:00.687Z,16.32
2022-09-09T19:10:30.900Z,16.32
2022-09-09T19:12:59.685Z,16.30
2022-09-09T19:15:33.359Z,16.33
2022-09-09T19:18:05.753Z,16.45
2022-09-09T19:20:34.264Z,16.54
2022-09-09T19:23:02.685Z,16.67
2022-09-09T19:25:32.289Z,16.79
2022-09-09T19:28:07.458Z,16.68
2022-09-09T19:30:37.501Z,16.69
2022-09-09T19:33:05.754Z,16.64
2022-09-09T19:35:34.168Z,16.52
2022-09-09T19:38:04.242Z,16.37
2022-09-09T19:40:34.979Z,16.20
2022-09-09T19:43:05.558Z,16.18
2022-09-09T19:45:34.287Z,16.15
2022-09-09T19:48:06.737Z,16.18
2022-09-09T19:50:37.329Z,16.19
2022-09-09T21:10:11.071Z,15.04
2022-09-09T21:12:39.385Z,15.20
2022-09-09T21:15:07.894Z,15.22
2022-09-09T21:17:35.777Z,15.15
2022-09-09T21:20:04.488Z,15.17
2022-09-09T21:22:32.487Z,15.20
2022-09-09T21:25:00.644Z,15.09
2022-09-09T21:27:30.102Z,15.02
2022-09-09T21:29:58.060Z,14.95
2022-09-09T21:32:25.857Z,15.02
2022-09-09T21:34:53.596Z,15.03
2022-09-09T21:37:21.589Z,14.96
2022-09-09T21:39:50.458Z,14.94
2022-09-09T21:42:18.337Z,14.89
2022-09-09T21:44:47.913Z,14.92
2022-09-09T21:47:16.176Z,14.85
2022-09-09T21:49:44.161Z,14.88
2022-09-09T21:52:12.411Z,14.89
2022-09-09T21:54:43.784Z,14.86
2022-09-09T21:57:14.287Z,14.91
2022-09-09T21:59:42.687Z,14.80
2022-09-09T22:02:14.233Z,14.84
2022-09-09T22:04:43.315Z,14.85
2022-09-09T22:07:12.030Z,14.82
2022-09-09T22:09:39.989Z,14.89
2022-09-09T22:12:10.108Z,14.90
2022-09-09T22:14:38.706Z,14.84
2022-09-09T22:17:07.420Z,14.90
2022-09-09T22:19:36.665Z,14.99
2022-09-09T22:22:04.847Z,14.88
2022-09-09T22:24:33.099Z,14.86
2022-09-09T22:27:01.401Z,14.79
2022-09-09T22:29:29.510Z,14.78
2022-09-09T22:31:57.787Z,14.75
2022-09-09T22:34:28.753Z,14.83
2022-09-09T22:36:58.436Z,14.84
2022-09-09T22:39:26.321Z,14.77
2022-09-09T22:41:53.984Z,14.77
2022-09-09T22:44:23.086Z,14.85
2022-09-09T22:46:51.546Z,14.84
2022-09-09T22:49:20.226Z,14.63
2022-09-09T22:51:48.037Z,14.67
2022-09-09T22:54:21.630Z,14.73
2022-09-09T22:56:49.634Z,14.97
2022-09-09T22:59:18.217Z,15.04
2022-09-09T23:01:46.806Z,15.07
2022-09-09T23:04:15.116Z,15.15
2022-09-09T23:06:44.976Z,15.04
2022-09-09T23:09:13.257Z,15.06
2022-09-09T23:11:42.565Z,15.23
2022-09-09T23:14:12.795Z,15.34
2022-09-09T23:16:43.961Z,15.42
2022-09-09T23:19:16.040Z,15.49
2022-09-09T23:21:46.092Z,15.57
2022-09-09T23:24:16.785Z,15.63
2022-09-09T23:26:47.530Z,15.61
2022-09-09T23:29:16.047Z,15.47
2022-09-09T23:31:46.261Z,15.43
2022-09-09T23:34:14.968Z,15.32
2022-09-09T23:36:43.296Z,15.24
2022-09-09T23:39:13.264Z,15.24
2022-09-09T23:41:41.464Z,15.25
2022-09-09T23:44:13.151Z,15.35
2022-09-09T23:46:41.296Z,15.37
2022-09-09T23:49:10.018Z,15.51
2022-09-09T23:51:41.608Z,15.52
2022-09-09T23:54:10.776Z,15.59
2022-09-09T23:56:41.302Z,15.62
2022-09-09T23:59:13.857Z,15.51
